sensor_id;sensor_type;location;lat;lon;timestamp;P1;durP1;ratioP1;P2;durP2;ratioP2
55776;SDS011;54079;44.540;18.784;2023-03-05T00:00:47;98.25;;;33.55;;
55776;SDS011;54079;44.540;18.784;2023-03-05T00:03:13;89.88;;;34.33;;
55776;SDS011;54079;44.540;18.784;2023-03-05T00:05:38;99.70;;;35.20;;
55776;SDS011;54079;44.540;18.784;2023-03-05T00:08:04;78.93;;;33.65;;
55776;SDS011;54079;44.540;18.784;2023-03-05T00:10:30;108.20;;;36.95;;
55776;SDS011;54079;44.540;18.784;2023-03-05T00:12:56;75.45;;;34.30;;
55776;SDS011;54079;44.540;18.784;2023-03-05T00:15:22;58.78;;;32.58;;
55776;SDS011;54079;44.540;18.784;2023-03-05T00:17:48;79.50;;;32.33;;
55776;SDS011;54079;44.540;18.784;2023-03-05T00:20:14;72.53;;;34.83;;
55776;SDS011;54079;44.540;18.784;2023-03-05T00:22:40;58.80;;;32.22;;
55776;SDS011;54079;44.540;18.784;2023-03-05T00:25:06;66.90;;;32.20;;
55776;SDS011;54079;44.540;18.784;2023-03-05T00:27:33;55.78;;;32.03;;
55776;SDS011;54079;44.540;18.784;2023-03-05T00:29:59;48.20;;;28.95;;
55776;SDS011;54079;44.540;18.784;2023-03-05T00:32:24;59.15;;;31.45;;
55776;SDS011;54079;44.540;18.784;2023-03-05T00:34:50;62.55;;;30.08;;
55776;SDS011;54079;44.540;18.784;2023-03-05T00:37:16;55.45;;;28.00;;
55776;SDS011;54079;44.540;18.784;2023-03-05T00:39:42;60.58;;;29.38;;
55776;SDS011;54079;44.540;18.784;2023-03-05T00:42:08;50.67;;;26.88;;
55776;SDS011;54079;44.540;18.784;2023-03-05T00:44:34;56.35;;;30.70;;
55776;SDS011;54079;44.540;18.784;2023-03-05T00:47:00;66.90;;;33.00;;
55776;SDS011;54079;44.540;18.784;2023-03-05T00:49:26;65.53;;;33.15;;
55776;SDS011;54079;44.540;18.784;2023-03-05T00:51:52;61.90;;;30.38;;
55776;SDS011;54079;44.540;18.784;2023-03-05T00:54:18;79.57;;;35.75;;
55776;SDS011;54079;44.540;18.784;2023-03-05T00:56:44;70.38;;;32.45;;
55776;SDS011;54079;44.540;18.784;2023-03-05T00:59:11;61.85;;;32.08;;
55776;SDS011;54079;44.540;18.784;2023-03-05T01:01:37;63.92;;;30.70;;
55776;SDS011;54079;44.540;18.784;2023-03-05T01:04:04;67.18;;;32.58;;
55776;SDS011;54079;44.540;18.784;2023-03-05T01:06:30;82.60;;;33.35;;
55776;SDS011;54079;44.540;18.784;2023-03-05T01:08:56;79.90;;;37.03;;
55776;SDS011;54079;44.540;18.784;2023-03-05T01:11:23;83.18;;;36.05;;
55776;SDS011;54079;44.540;18.784;2023-03-05T01:13:50;64.82;;;32.05;;
55776;SDS011;54079;44.540;18.784;2023-03-05T01:16:15;65.25;;;32.22;;
55776;SDS011;54079;44.540;18.784;2023-03-05T01:18:41;70.30;;;31.10;;
55776;SDS011;54079;44.540;18.784;2023-03-05T01:21:08;70.00;;;32.90;;
55776;SDS011;54079;44.540;18.784;2023-03-05T01:23:34;76.90;;;33.65;;
55776;SDS011;54079;44.540;18.784;2023-03-05T01:26:01;60.88;;;29.98;;
55776;SDS011;54079;44.540;18.784;2023-03-05T01:28:28;61.10;;;29.25;;
55776;SDS011;54079;44.540;18.784;2023-03-05T01:30:54;52.90;;;27.63;;
55776;SDS011;54079;44.540;18.784;2023-03-05T01:33:20;54.83;;;30.70;;
55776;SDS011;54079;44.540;18.784;2023-03-05T01:35:46;62.85;;;31.48;;
55776;SDS011;54079;44.540;18.784;2023-03-05T01:38:14;55.78;;;30.55;;
55776;SDS011;54079;44.540;18.784;2023-03-05T01:40:41;57.75;;;31.35;;
55776;SDS011;54079;44.540;18.784;2023-03-05T01:43:18;61.80;;;34.08;;
55776;SDS011;54079;44.540;18.784;2023-03-05T01:48:35;58.22;;;29.27;;
55776;SDS011;54079;44.540;18.784;2023-03-05T01:51:02;60.55;;;32.58;;
55776;SDS011;54079;44.540;18.784;2023-03-05T01:53:28;49.75;;;28.65;;
55776;SDS011;54079;44.540;18.784;2023-03-05T01:55:54;48.38;;;27.10;;
55776;SDS011;54079;44.540;18.784;2023-03-05T01:58:21;58.50;;;28.75;;
55776;SDS011;54079;44.540;18.784;2023-03-05T02:00:47;54.10;;;28.77;;
55776;SDS011;54079;44.540;18.784;2023-03-05T02:03:16;52.05;;;27.20;;
55776;SDS011;54079;44.540;18.784;2023-03-05T02:05:43;61.45;;;29.08;;
55776;SDS011;54079;44.540;18.784;2023-03-05T02:08:11;59.92;;;27.05;;
55776;SDS011;54079;44.540;18.784;2023-03-05T02:10:42;65.90;;;30.55;;
55776;SDS011;54079;44.540;18.784;2023-03-05T02:13:14;77.65;;;34.72;;
55776;SDS011;54079;44.540;18.784;2023-03-05T02:15:43;70.72;;;32.42;;
55776;SDS011;54079;44.540;18.784;2023-03-05T02:18:11;57.35;;;28.33;;
55776;SDS011;54079;44.540;18.784;2023-03-05T02:20:48;58.00;;;30.52;;
55776;SDS011;54079;44.540;18.784;2023-03-05T02:23:21;57.60;;;28.50;;
55776;SDS011;54079;44.540;18.784;2023-03-05T02:25:56;54.72;;;27.08;;
55776;SDS011;54079;44.540;18.784;2023-03-05T02:29:05;70.47;;;31.05;;
55776;SDS011;54079;44.540;18.784;2023-03-05T02:31:20;61.10;;;29.00;;
55776;SDS011;54079;44.540;18.784;2023-03-05T02:33:48;55.63;;;28.90;;
55776;SDS011;54079;44.540;18.784;2023-03-05T02:36:15;50.67;;;26.50;;
55776;SDS011;54079;44.540;18.784;2023-03-05T02:38:42;58.10;;;29.38;;
55776;SDS011;54079;44.540;18.784;2023-03-05T02:41:09;51.47;;;28.17;;
55776;SDS011;54079;44.540;18.784;2023-03-05T02:43:35;65.65;;;30.50;;
55776;SDS011;54079;44.540;18.784;2023-03-05T02:46:02;48.67;;;24.60;;
55776;SDS011;54079;44.540;18.784;2023-03-05T02:48:28;44.28;;;24.08;;
55776;SDS011;54079;44.540;18.784;2023-03-05T02:50:55;44.88;;;23.20;;
55776;SDS011;54079;44.540;18.784;2023-03-05T02:53:21;42.78;;;23.90;;
55776;SDS011;54079;44.540;18.784;2023-03-05T02:55:48;44.33;;;22.85;;
55776;SDS011;54079;44.540;18.784;2023-03-05T02:58:14;40.15;;;22.80;;
55776;SDS011;54079;44.540;18.784;2023-03-05T03:00:41;41.03;;;24.90;;
55776;SDS011;54079;44.540;18.784;2023-03-05T03:03:08;37.85;;;22.38;;
55776;SDS011;54079;44.540;18.784;2023-03-05T03:05:34;39.63;;;22.73;;
55776;SDS011;54079;44.540;18.784;2023-03-05T03:08:01;38.47;;;21.20;;
55776;SDS011;54079;44.540;18.784;2023-03-05T03:10:27;35.80;;;21.23;;
55776;SDS011;54079;44.540;18.784;2023-03-05T03:12:53;33.28;;;20.50;;
55776;SDS011;54079;44.540;18.784;2023-03-05T03:15:19;31.70;;;19.77;;
55776;SDS011;54079;44.540;18.784;2023-03-05T03:17:45;37.05;;;21.27;;
55776;SDS011;54079;44.540;18.784;2023-03-05T03:20:12;42.17;;;25.40;;
55776;SDS011;54079;44.540;18.784;2023-03-05T03:22:41;42.58;;;25.63;;
55776;SDS011;54079;44.540;18.784;2023-03-05T03:25:08;43.53;;;25.52;;
55776;SDS011;54079;44.540;18.784;2023-03-05T03:27:37;37.33;;;22.30;;
55776;SDS011;54079;44.540;18.784;2023-03-05T03:30:04;31.13;;;19.27;;
55776;SDS011;54079;44.540;18.784;2023-03-05T03:32:30;28.23;;;17.40;;
55776;SDS011;54079;44.540;18.784;2023-03-05T03:34:57;32.92;;;19.92;;
55776;SDS011;54079;44.540;18.784;2023-03-05T03:37:24;30.35;;;19.35;;
55776;SDS011;54079;44.540;18.784;2023-03-05T03:39:50;28.17;;;16.92;;
55776;SDS011;54079;44.540;18.784;2023-03-05T03:42:17;25.45;;;16.58;;
55776;SDS011;54079;44.540;18.784;2023-03-05T03:44:44;30.40;;;15.93;;
55776;SDS011;54079;44.540;18.784;2023-03-05T03:47:10;26.92;;;16.50;;
55776;SDS011;54079;44.540;18.784;2023-03-05T03:49:36;24.77;;;16.23;;
55776;SDS011;54079;44.540;18.784;2023-03-05T03:52:02;26.45;;;16.73;;
55776;SDS011;54079;44.540;18.784;2023-03-05T03:54:28;23.17;;;15.48;;
55776;SDS011;54079;44.540;18.784;2023-03-05T03:56:54;30.70;;;16.00;;
55776;SDS011;54079;44.540;18.784;2023-03-05T03:59:20;29.45;;;16.42;;
55776;SDS011;54079;44.540;18.784;2023-03-05T04:01:46;31.67;;;17.35;;
55776;SDS011;54079;44.540;18.784;2023-03-05T04:04:12;22.90;;;14.93;;
55776;SDS011;54079;44.540;18.784;2023-03-05T04:06:39;26.08;;;16.20;;
55776;SDS011;54079;44.540;18.784;2023-03-05T04:09:06;24.20;;;16.65;;
55776;SDS011;54079;44.540;18.784;2023-03-05T04:11:32;22.00;;;14.40;;
55776;SDS011;54079;44.540;18.784;2023-03-05T04:14:02;21.80;;;12.93;;
55776;SDS011;54079;44.540;18.784;2023-03-05T04:16:29;20.50;;;12.63;;
55776;SDS011;54079;44.540;18.784;2023-03-05T04:18:55;23.33;;;13.27;;
55776;SDS011;54079;44.540;18.784;2023-03-05T04:21:21;24.17;;;15.13;;
55776;SDS011;54079;44.540;18.784;2023-03-05T04:23:47;21.52;;;14.65;;
55776;SDS011;54079;44.540;18.784;2023-03-05T04:26:14;19.83;;;12.75;;
55776;SDS011;54079;44.540;18.784;2023-03-05T04:28:39;21.13;;;13.13;;
55776;SDS011;54079;44.540;18.784;2023-03-05T04:31:06;22.23;;;14.00;;
55776;SDS011;54079;44.540;18.784;2023-03-05T04:33:31;21.15;;;14.10;;
55776;SDS011;54079;44.540;18.784;2023-03-05T04:35:58;20.65;;;13.23;;
55776;SDS011;54079;44.540;18.784;2023-03-05T04:38:23;20.98;;;12.70;;
55776;SDS011;54079;44.540;18.784;2023-03-05T04:40:49;16.90;;;12.15;;
55776;SDS011;54079;44.540;18.784;2023-03-05T04:43:15;16.52;;;10.95;;
55776;SDS011;54079;44.540;18.784;2023-03-05T04:45:42;19.27;;;11.52;;
55776;SDS011;54079;44.540;18.784;2023-03-05T04:48:08;19.65;;;13.05;;
55776;SDS011;54079;44.540;18.784;2023-03-05T04:50:36;20.73;;;13.18;;
55776;SDS011;54079;44.540;18.784;2023-03-05T04:53:02;17.70;;;12.50;;
55776;SDS011;54079;44.540;18.784;2023-03-05T04:55:29;22.25;;;14.45;;
55776;SDS011;54079;44.540;18.784;2023-03-05T04:57:55;37.80;;;21.80;;
55776;SDS011;54079;44.540;18.784;2023-03-05T05:00:21;35.55;;;22.80;;
55776;SDS011;54079;44.540;18.784;2023-03-05T05:02:48;37.58;;;23.13;;
55776;SDS011;54079;44.540;18.784;2023-03-05T05:05:16;34.85;;;21.17;;
55776;SDS011;54079;44.540;18.784;2023-03-05T05:07:44;41.42;;;23.70;;
55776;SDS011;54079;44.540;18.784;2023-03-05T05:10:11;40.13;;;24.58;;
55776;SDS011;54079;44.540;18.784;2023-03-05T05:12:38;41.50;;;24.45;;
55776;SDS011;54079;44.540;18.784;2023-03-05T05:15:04;42.42;;;25.48;;
55776;SDS011;54079;44.540;18.784;2023-03-05T05:17:32;50.75;;;30.55;;
55776;SDS011;54079;44.540;18.784;2023-03-05T05:19:58;49.53;;;28.83;;
55776;SDS011;54079;44.540;18.784;2023-03-05T05:22:26;43.25;;;25.73;;
55776;SDS011;54079;44.540;18.784;2023-03-05T05:24:53;43.58;;;25.63;;
55776;SDS011;54079;44.540;18.784;2023-03-05T05:27:19;37.80;;;23.27;;
55776;SDS011;54079;44.540;18.784;2023-03-05T05:29:45;52.65;;;29.83;;
55776;SDS011;54079;44.540;18.784;2023-03-05T05:32:14;54.58;;;32.30;;
55776;SDS011;54079;44.540;18.784;2023-03-05T05:34:41;53.63;;;31.33;;
55776;SDS011;54079;44.540;18.784;2023-03-05T05:37:07;60.67;;;34.60;;
55776;SDS011;54079;44.540;18.784;2023-03-05T05:39:34;63.60;;;37.45;;
55776;SDS011;54079;44.540;18.784;2023-03-05T05:42:00;69.78;;;38.92;;
55776;SDS011;54079;44.540;18.784;2023-03-05T05:44:26;68.78;;;41.42;;
55776;SDS011;54079;44.540;18.784;2023-03-05T05:46:52;68.60;;;42.72;;
55776;SDS011;54079;44.540;18.784;2023-03-05T05:49:18;72.68;;;43.13;;
55776;SDS011;54079;44.540;18.784;2023-03-05T05:51:44;71.88;;;41.90;;
55776;SDS011;54079;44.540;18.784;2023-03-05T05:54:13;67.43;;;39.67;;
55776;SDS011;54079;44.540;18.784;2023-03-05T05:56:39;69.53;;;42.15;;
55776;SDS011;54079;44.540;18.784;2023-03-05T05:59:06;53.63;;;34.08;;
55776;SDS011;54079;44.540;18.784;2023-03-05T06:01:33;58.60;;;35.42;;
55776;SDS011;54079;44.540;18.784;2023-03-05T06:03:59;64.35;;;36.92;;
55776;SDS011;54079;44.540;18.784;2023-03-05T06:06:26;64.35;;;39.05;;
55776;SDS011;54079;44.540;18.784;2023-03-05T06:08:52;74.38;;;43.00;;
55776;SDS011;54079;44.540;18.784;2023-03-05T06:11:18;71.78;;;42.03;;
55776;SDS011;54079;44.540;18.784;2023-03-05T06:13:45;70.47;;;43.40;;
55776;SDS011;54079;44.540;18.784;2023-03-05T06:16:13;68.72;;;41.47;;
55776;SDS011;54079;44.540;18.784;2023-03-05T06:18:41;66.78;;;39.47;;
55776;SDS011;54079;44.540;18.784;2023-03-05T06:21:11;63.53;;;38.08;;
55776;SDS011;54079;44.540;18.784;2023-03-05T06:23:39;67.82;;;40.65;;
55776;SDS011;54079;44.540;18.784;2023-03-05T06:26:06;65.82;;;39.17;;
55776;SDS011;54079;44.540;18.784;2023-03-05T06:28:33;68.20;;;41.95;;
55776;SDS011;54079;44.540;18.784;2023-03-05T06:31:04;71.45;;;40.55;;
55776;SDS011;54079;44.540;18.784;2023-03-05T06:33:35;59.63;;;35.45;;
55776;SDS011;54079;44.540;18.784;2023-03-05T06:36:06;53.67;;;33.95;;
55776;SDS011;54079;44.540;18.784;2023-03-05T06:38:34;49.13;;;31.45;;
55776;SDS011;54079;44.540;18.784;2023-03-05T06:41:01;42.95;;;28.27;;
55776;SDS011;54079;44.540;18.784;2023-03-05T06:43:34;54.65;;;32.22;;
55776;SDS011;54079;44.540;18.784;2023-03-05T06:46:03;57.10;;;33.28;;
55776;SDS011;54079;44.540;18.784;2023-03-05T06:48:31;55.47;;;30.98;;
55776;SDS011;54079;44.540;18.784;2023-03-05T06:50:57;47.22;;;30.48;;
55776;SDS011;54079;44.540;18.784;2023-03-05T06:53:24;56.85;;;34.47;;
55776;SDS011;54079;44.540;18.784;2023-03-05T06:55:50;55.47;;;32.50;;
55776;SDS011;54079;44.540;18.784;2023-03-05T06:58:17;53.95;;;33.15;;
55776;SDS011;54079;44.540;18.784;2023-03-05T07:00:44;57.45;;;34.42;;
55776;SDS011;54079;44.540;18.784;2023-03-05T07:03:10;55.17;;;33.90;;
55776;SDS011;54079;44.540;18.784;2023-03-05T07:05:40;52.80;;;33.47;;
55776;SDS011;54079;44.540;18.784;2023-03-05T07:08:07;61.30;;;36.92;;
55776;SDS011;54079;44.540;18.784;2023-03-05T07:10:38;70.47;;;42.90;;
55776;SDS011;54079;44.540;18.784;2023-03-05T07:13:05;68.53;;;40.40;;
55776;SDS011;54079;44.540;18.784;2023-03-05T07:15:32;65.60;;;38.75;;
55776;SDS011;54079;44.540;18.784;2023-03-05T07:17:58;64.20;;;41.05;;
55776;SDS011;54079;44.540;18.784;2023-03-05T07:20:24;74.70;;;44.33;;
55776;SDS011;54079;44.540;18.784;2023-03-05T07:22:50;63.08;;;40.55;;
55776;SDS011;54079;44.540;18.784;2023-03-05T07:25:16;64.60;;;40.97;;
55776;SDS011;54079;44.540;18.784;2023-03-05T07:27:45;63.40;;;40.17;;
55776;SDS011;54079;44.540;18.784;2023-03-05T07:30:12;64.53;;;39.75;;
55776;SDS011;54079;44.540;18.784;2023-03-05T07:32:39;68.03;;;41.83;;
55776;SDS011;54079;44.540;18.784;2023-03-05T07:35:05;58.38;;;37.20;;
55776;SDS011;54079;44.540;18.784;2023-03-05T07:37:32;59.47;;;37.08;;
55776;SDS011;54079;44.540;18.784;2023-03-05T07:39:58;61.15;;;37.95;;
55776;SDS011;54079;44.540;18.784;2023-03-05T07:42:24;56.97;;;35.88;;
55776;SDS011;54079;44.540;18.784;2023-03-05T07:44:50;53.53;;;31.85;;
55776;SDS011;54079;44.540;18.784;2023-03-05T07:47:16;58.67;;;36.50;;
55776;SDS011;54079;44.540;18.784;2023-03-05T07:49:42;69.13;;;37.78;;
55776;SDS011;54079;44.540;18.784;2023-03-05T07:52:08;52.30;;;33.25;;
55776;SDS011;54079;44.540;18.784;2023-03-05T07:54:37;53.95;;;32.85;;
55776;SDS011;54079;44.540;18.784;2023-03-05T07:57:04;50.55;;;32.50;;
55776;SDS011;54079;44.540;18.784;2023-03-05T07:59:30;53.92;;;31.45;;
55776;SDS011;54079;44.540;18.784;2023-03-05T08:01:57;53.75;;;32.22;;
55776;SDS011;54079;44.540;18.784;2023-03-05T08:04:23;56.45;;;35.67;;
55776;SDS011;54079;44.540;18.784;2023-03-05T08:06:49;52.78;;;32.47;;
55776;SDS011;54079;44.540;18.784;2023-03-05T08:09:16;55.00;;;33.22;;
55776;SDS011;54079;44.540;18.784;2023-03-05T08:11:42;54.33;;;33.55;;
55776;SDS011;54079;44.540;18.784;2023-03-05T08:14:08;58.97;;;33.80;;
55776;SDS011;54079;44.540;18.784;2023-03-05T08:16:35;55.17;;;33.40;;
55776;SDS011;54079;44.540;18.784;2023-03-05T08:19:02;51.85;;;32.65;;
55776;SDS011;54079;44.540;18.784;2023-03-05T08:21:29;47.20;;;30.00;;
55776;SDS011;54079;44.540;18.784;2023-03-05T08:24:01;48.83;;;28.48;;
55776;SDS011;54079;44.540;18.784;2023-03-05T08:26:29;45.70;;;27.88;;
55776;SDS011;54079;44.540;18.784;2023-03-05T08:28:56;41.30;;;27.08;;
55776;SDS011;54079;44.540;18.784;2023-03-05T08:31:23;38.85;;;24.45;;
55776;SDS011;54079;44.540;18.784;2023-03-05T08:33:51;41.13;;;26.85;;
55776;SDS011;54079;44.540;18.784;2023-03-05T08:36:18;48.97;;;28.63;;
55776;SDS011;54079;44.540;18.784;2023-03-05T08:38:44;46.08;;;30.27;;
55776;SDS011;54079;44.540;18.784;2023-03-05T08:41:13;48.15;;;30.85;;
55776;SDS011;54079;44.540;18.784;2023-03-05T08:43:40;51.90;;;34.05;;
55776;SDS011;54079;44.540;18.784;2023-03-05T08:46:06;47.33;;;29.77;;
55776;SDS011;54079;44.540;18.784;2023-03-05T08:48:32;40.35;;;26.50;;
55776;SDS011;54079;44.540;18.784;2023-03-05T08:51:12;45.47;;;29.58;;
55776;SDS011;54079;44.540;18.784;2023-03-05T08:53:42;38.95;;;26.95;;
55776;SDS011;54079;44.540;18.784;2023-03-05T08:56:09;39.58;;;27.13;;
55776;SDS011;54079;44.540;18.784;2023-03-05T08:58:35;42.85;;;26.83;;
55776;SDS011;54079;44.540;18.784;2023-03-05T09:01:01;43.35;;;30.02;;
55776;SDS011;54079;44.540;18.784;2023-03-05T09:03:28;41.60;;;27.58;;
55776;SDS011;54079;44.540;18.784;2023-03-05T09:05:57;40.60;;;27.10;;
55776;SDS011;54079;44.540;18.784;2023-03-05T09:08:28;39.13;;;27.02;;
55776;SDS011;54079;44.540;18.784;2023-03-05T09:10:54;41.03;;;28.02;;
55776;SDS011;54079;44.540;18.784;2023-03-05T09:13:20;38.92;;;26.35;;
55776;SDS011;54079;44.540;18.784;2023-03-05T09:15:52;31.63;;;22.95;;
55776;SDS011;54079;44.540;18.784;2023-03-05T09:18:22;32.25;;;22.85;;
55776;SDS011;54079;44.540;18.784;2023-03-05T09:20:48;35.55;;;24.20;;
55776;SDS011;54079;44.540;18.784;2023-03-05T09:23:14;30.40;;;22.45;;
55776;SDS011;54079;44.540;18.784;2023-03-05T09:25:40;39.25;;;26.45;;
55776;SDS011;54079;44.540;18.784;2023-03-05T09:28:06;37.70;;;25.60;;
55776;SDS011;54079;44.540;18.784;2023-03-05T09:30:32;35.45;;;24.48;;
55776;SDS011;54079;44.540;18.784;2023-03-05T09:32:59;37.60;;;24.92;;
55776;SDS011;54079;44.540;18.784;2023-03-05T09:35:26;29.98;;;20.33;;
55776;SDS011;54079;44.540;18.784;2023-03-05T09:37:52;22.02;;;16.55;;
55776;SDS011;54079;44.540;18.784;2023-03-05T09:40:19;20.13;;;14.90;;
55776;SDS011;54079;44.540;18.784;2023-03-05T09:42:54;15.27;;;10.40;;
55776;SDS011;54079;44.540;18.784;2023-03-05T09:45:43;16.52;;;11.60;;
55776;SDS011;54079;44.540;18.784;2023-03-05T09:48:31;17.98;;;12.40;;
55776;SDS011;54079;44.540;18.784;2023-03-05T09:51:20;18.77;;;13.50;;
55776;SDS011;54079;44.540;18.784;2023-03-05T09:53:57;24.67;;;17.48;;
55776;SDS011;54079;44.540;18.784;2023-03-05T09:56:55;17.92;;;11.65;;
55776;SDS011;54079;44.540;18.784;2023-03-05T10:02:00;19.67;;;12.73;;
55776;SDS011;54079;44.540;18.784;2023-03-05T10:07:40;19.65;;;14.52;;
55776;SDS011;54079;44.540;18.784;2023-03-05T10:10:14;25.20;;;17.40;;
55776;SDS011;54079;44.540;18.784;2023-03-05T10:12:49;17.38;;;10.65;;
55776;SDS011;54079;44.540;18.784;2023-03-05T10:15:32;22.17;;;14.30;;
55776;SDS011;54079;44.540;18.784;2023-03-05T10:21:03;14.43;;;9.45;;
55776;SDS011;54079;44.540;18.784;2023-03-05T10:23:49;13.43;;;9.85;;
55776;SDS011;54079;44.540;18.784;2023-03-05T10:26:26;16.20;;;12.20;;
55776;SDS011;54079;44.540;18.784;2023-03-05T10:45:28;17.50;;;12.02;;
55776;SDS011;54079;44.540;18.784;2023-03-05T10:48:04;12.18;;;8.52;;
55776;SDS011;54079;44.540;18.784;2023-03-05T10:50:49;14.85;;;8.52;;
55776;SDS011;54079;44.540;18.784;2023-03-05T10:53:27;13.93;;;9.27;;
55776;SDS011;54079;44.540;18.784;2023-03-05T10:56:01;13.63;;;9.07;;
55776;SDS011;54079;44.540;18.784;2023-03-05T10:58:29;12.45;;;8.98;;
55776;SDS011;54079;44.540;18.784;2023-03-05T11:03:25;15.35;;;10.85;;
55776;SDS011;54079;44.540;18.784;2023-03-05T11:06:12;14.90;;;10.32;;
55776;SDS011;54079;44.540;18.784;2023-03-05T11:08:39;10.07;;;7.78;;
55776;SDS011;54079;44.540;18.784;2023-03-05T11:14:21;10.23;;;6.95;;
55776;SDS011;54079;44.540;18.784;2023-03-05T11:16:33;9.77;;;7.47;;
55776;SDS011;54079;44.540;18.784;2023-03-05T11:21:39;11.10;;;7.47;;
55776;SDS011;54079;44.540;18.784;2023-03-05T11:24:14;10.20;;;5.75;;
55776;SDS011;54079;44.540;18.784;2023-03-05T11:26:50;9.57;;;6.60;;
55776;SDS011;54079;44.540;18.784;2023-03-05T11:29:27;6.35;;;4.25;;
55776;SDS011;54079;44.540;18.784;2023-03-05T11:31:55;5.43;;;4.22;;
55776;SDS011;54079;44.540;18.784;2023-03-05T11:34:50;7.50;;;4.85;;
55776;SDS011;54079;44.540;18.784;2023-03-05T11:37:29;6.28;;;4.45;;
55776;SDS011;54079;44.540;18.784;2023-03-05T11:40:13;10.60;;;7.07;;
55776;SDS011;54079;44.540;18.784;2023-03-05T11:42:48;12.95;;;9.23;;
55776;SDS011;54079;44.540;18.784;2023-03-05T11:45:19;9.60;;;6.47;;
55776;SDS011;54079;44.540;18.784;2023-03-05T11:47:50;7.38;;;5.40;;
55776;SDS011;54079;44.540;18.784;2023-03-05T11:50:19;5.97;;;4.55;;
55776;SDS011;54079;44.540;18.784;2023-03-05T11:52:51;6.28;;;4.82;;
55776;SDS011;54079;44.540;18.784;2023-03-05T12:00:52;7.40;;;5.15;;
55776;SDS011;54079;44.540;18.784;2023-03-05T12:03:19;9.40;;;6.22;;
55776;SDS011;54079;44.540;18.784;2023-03-05T12:05:53;6.18;;;4.75;;
55776;SDS011;54079;44.540;18.784;2023-03-05T12:08:26;10.00;;;6.47;;
55776;SDS011;54079;44.540;18.784;2023-03-05T12:10:57;8.65;;;6.18;;
55776;SDS011;54079;44.540;18.784;2023-03-05T12:13:29;5.97;;;4.68;;
55776;SDS011;54079;44.540;18.784;2023-03-05T12:19:50;5.32;;;3.13;;
55776;SDS011;54079;44.540;18.784;2023-03-05T12:21:50;3.45;;;2.35;;
55776;SDS011;54079;44.540;18.784;2023-03-05T12:31:54;3.88;;;2.78;;
55776;SDS011;54079;44.540;18.784;2023-03-05T12:37:08;5.50;;;4.40;;
55776;SDS011;54079;44.540;18.784;2023-03-05T12:47:40;5.00;;;3.67;;
55776;SDS011;54079;44.540;18.784;2023-03-05T12:53:13;3.70;;;3.13;;
55776;SDS011;54079;44.540;18.784;2023-03-05T12:58:18;5.10;;;4.03;;
55776;SDS011;54079;44.540;18.784;2023-03-05T13:03:46;6.30;;;4.32;;
55776;SDS011;54079;44.540;18.784;2023-03-05T13:06:25;7.88;;;4.63;;
55776;SDS011;54079;44.540;18.784;2023-03-05T13:08:59;6.22;;;3.78;;
55776;SDS011;54079;44.540;18.784;2023-03-05T13:11:29;4.22;;;3.47;;
55776;SDS011;54079;44.540;18.784;2023-03-05T13:13:58;5.85;;;4.03;;
55776;SDS011;54079;44.540;18.784;2023-03-05T13:16:26;5.00;;;3.78;;
55776;SDS011;54079;44.540;18.784;2023-03-05T13:18:58;7.97;;;5.28;;
55776;SDS011;54079;44.540;18.784;2023-03-05T13:21:28;7.13;;;4.75;;
55776;SDS011;54079;44.540;18.784;2023-03-05T13:23:57;7.50;;;4.20;;
55776;SDS011;54079;44.540;18.784;2023-03-05T13:26:26;5.82;;;3.55;;
55776;SDS011;54079;44.540;18.784;2023-03-05T13:29:04;6.50;;;4.68;;
55776;SDS011;54079;44.540;18.784;2023-03-05T13:31:34;7.90;;;4.78;;
55776;SDS011;54079;44.540;18.784;2023-03-05T13:34:10;9.88;;;5.95;;
55776;SDS011;54079;44.540;18.784;2023-03-05T13:36:45;4.72;;;3.58;;
55776;SDS011;54079;44.540;18.784;2023-03-05T13:39:20;10.68;;;5.75;;
55776;SDS011;54079;44.540;18.784;2023-03-05T13:42:00;5.20;;;3.40;;
55776;SDS011;54079;44.540;18.784;2023-03-05T13:44:32;4.30;;;2.97;;
55776;SDS011;54079;44.540;18.784;2023-03-05T13:47:11;5.63;;;3.85;;
55776;SDS011;54079;44.540;18.784;2023-03-05T13:49:45;5.13;;;3.90;;
55776;SDS011;54079;44.540;18.784;2023-03-05T13:52:11;8.93;;;6.28;;
55776;SDS011;54079;44.540;18.784;2023-03-05T13:54:56;9.20;;;5.60;;
55776;SDS011;54079;44.540;18.784;2023-03-05T14:00:04;9.50;;;6.20;;
55776;SDS011;54079;44.540;18.784;2023-03-05T14:02:31;7.25;;;4.47;;
55776;SDS011;54079;44.540;18.784;2023-03-05T14:04:57;10.30;;;5.57;;
55776;SDS011;54079;44.540;18.784;2023-03-05T14:07:57;11.43;;;7.38;;
55776;SDS011;54079;44.540;18.784;2023-03-05T14:10:36;9.95;;;6.82;;
55776;SDS011;54079;44.540;18.784;2023-03-05T14:13:03;11.27;;;7.38;;
55776;SDS011;54079;44.540;18.784;2023-03-05T14:15:36;9.75;;;6.22;;
55776;SDS011;54079;44.540;18.784;2023-03-05T14:18:14;7.50;;;3.85;;
55776;SDS011;54079;44.540;18.784;2023-03-05T14:31:34;5.80;;;4.30;;
55776;SDS011;54079;44.540;18.784;2023-03-05T14:37:02;6.00;;;4.63;;
55776;SDS011;54079;44.540;18.784;2023-03-05T14:39:34;7.20;;;4.28;;
55776;SDS011;54079;44.540;18.784;2023-03-05T14:44:49;6.80;;;4.45;;
55776;SDS011;54079;44.540;18.784;2023-03-05T14:47:15;7.00;;;4.15;;
55776;SDS011;54079;44.540;18.784;2023-03-05T14:49:41;10.00;;;7.63;;
55776;SDS011;54079;44.540;18.784;2023-03-05T14:52:08;9.88;;;6.47;;
55776;SDS011;54079;44.540;18.784;2023-03-05T14:54:39;6.15;;;4.38;;
55776;SDS011;54079;44.540;18.784;2023-03-05T14:57:05;9.38;;;5.65;;
55776;SDS011;54079;44.540;18.784;2023-03-05T14:59:31;5.72;;;3.88;;
55776;SDS011;54079;44.540;18.784;2023-03-05T15:01:56;7.80;;;5.63;;
55776;SDS011;54079;44.540;18.784;2023-03-05T15:04:22;7.28;;;5.20;;
55776;SDS011;54079;44.540;18.784;2023-03-05T15:06:48;6.32;;;4.57;;
55776;SDS011;54079;44.540;18.784;2023-03-05T15:09:16;7.82;;;5.07;;
55776;SDS011;54079;44.540;18.784;2023-03-05T15:11:44;9.38;;;6.85;;
55776;SDS011;54079;44.540;18.784;2023-03-05T15:14:10;9.38;;;6.72;;
55776;SDS011;54079;44.540;18.784;2023-03-05T15:16:37;10.52;;;7.20;;
55776;SDS011;54079;44.540;18.784;2023-03-05T15:19:06;11.20;;;6.80;;
55776;SDS011;54079;44.540;18.784;2023-03-05T15:21:35;8.77;;;5.43;;
55776;SDS011;54079;44.540;18.784;2023-03-05T15:24:01;9.57;;;7.25;;
55776;SDS011;54079;44.540;18.784;2023-03-05T15:26:27;11.85;;;6.28;;
55776;SDS011;54079;44.540;18.784;2023-03-05T15:28:53;12.05;;;7.40;;
55776;SDS011;54079;44.540;18.784;2023-03-05T15:31:18;17.98;;;10.70;;
55776;SDS011;54079;44.540;18.784;2023-03-05T15:33:44;14.23;;;11.20;;
55776;SDS011;54079;44.540;18.784;2023-03-05T15:36:10;12.40;;;8.80;;
55776;SDS011;54079;44.540;18.784;2023-03-05T15:38:37;11.43;;;8.18;;
55776;SDS011;54079;44.540;18.784;2023-03-05T15:41:05;10.23;;;6.85;;
55776;SDS011;54079;44.540;18.784;2023-03-05T15:43:32;11.75;;;8.02;;
55776;SDS011;54079;44.540;18.784;2023-03-05T15:45:57;11.18;;;7.65;;
55776;SDS011;54079;44.540;18.784;2023-03-05T15:48:23;10.65;;;7.47;;
55776;SDS011;54079;44.540;18.784;2023-03-05T15:50:49;12.20;;;8.93;;
55776;SDS011;54079;44.540;18.784;2023-03-05T15:53:15;10.43;;;6.63;;